Time;durP1;ratioP1;P1;durP2;ratioP2;P2;SDS_P1;SDS_P2;PMS_P1;PMS_P2;Temp;Humidity;BMP_temperature;BMP_pressure;BME280_temperature;BME280_humidity;BME280_pressure;Samples;Min_cycle;Max_cycle;Signal;HPM_P1;HPM_P2
2023/07/05 00:01:16;;;;;;;9.52;4.53;;;;;;;20.29;56.28;100439.34;4969729;28;118441;-70
2023/07/05 00:03:43;;;;;;;7.38;4.15;;;;;;;20.24;56.38;100431.69;4987003;28;119619;-71
2023/07/05 00:06:10;;;;;;;7.20;4.03;;;;;;;20.22;56.32;100414.84;4986464;28;123940;-71
2023/07/05 00:08:38;;;;;;;8.13;4.10;;;;;;;20.19;56.38;100420.50;4986756;28;125096;-71
2023/07/05 00:11:08;;;;;;;8.18;3.97;;;;;;;20.17;56.54;100409.03;4987086;28;119311;-71
2023/07/05 00:13:36;;;;;;;7.13;3.85;;;;;;;20.15;56.54;100405.66;4968503;28;119235;-70
2023/07/05 00:16:04;;;;;;;7.57;4.15;;;;;;;20.11;56.88;100410.47;4987032;28;124245;-70
2023/07/05 00:18:31;;;;;;;5.45;3.58;;;;;;;20.10;56.86;100402.53;4986277;28;124603;-71
2023/07/05 00:21:04;;;;;;;6.20;3.58;;;;;;;20.09;57.28;100395.47;4969565;28;119769;-70
2023/07/05 00:23:34;;;;;;;5.38;3.60;;;;;;;20.07;57.22;100384.84;4968936;28;120913;-70
2023/07/05 00:26:02;;;;;;;7.15;3.45;;;;;;;20.06;57.07;100368.84;4968957;28;124829;-71
2023/07/05 00:28:33;;;;;;;5.75;3.22;;;;;;;20.04;57.48;100366.31;4986400;28;124270;-70
2023/07/05 00:31:04;;;;;;;5.00;3.05;;;;;;;20.03;57.48;100359.25;4967490;28;119628;-69
2023/07/05 00:33:32;;;;;;;5.80;3.20;;;;;;;19.99;57.38;100356.00;4978344;28;119967;-70
2023/07/05 00:35:59;;;;;;;8.48;2.90;;;;;;;19.96;57.50;100348.19;4970056;28;124085;-70
2023/07/05 00:38:27;;;;;;;6.90;3.38;;;;;;;19.95;57.56;100351.91;4976631;28;124007;-70
2023/07/05 00:40:55;;;;;;;8.07;3.33;;;;;;;19.93;57.80;100343.13;4957402;28;119041;-71
2023/07/05 00:43:22;;;;;;;7.97;3.58;;;;;;;19.94;57.97;100326.00;4986576;28;120279;-71
2023/07/05 00:45:54;;;;;;;4.82;3.03;;;;;;;19.94;58.20;100307.19;4968647;28;123823;-71
2023/07/05 00:48:38;;;;;;;5.82;3.03;;;;;;;19.92;58.26;100298.41;4972291;28;129023;-71
2023/07/05 00:51:22;;;;;;;7.32;3.30;;;;;;;19.90;58.00;100286.97;5002681;28;120285;-71
2023/07/05 00:53:52;;;;;;;7.15;3.33;;;;;;;19.88;58.13;100286.25;4999024;28;119521;-70
2023/07/05 00:56:26;;;;;;;7.05;3.45;;;;;;;19.86;58.35;100282.88;4955097;28;124011;-70
2023/07/05 00:58:56;;;;;;;6.47;3.58;;;;;;;19.85;58.17;100259.66;4986047;28;123903;-71
2023/07/05 01:01:24;;;;;;;5.72;3.17;;;;;;;19.84;58.40;100252.59;4986272;28;119177;-70
2023/07/05 01:03:55;;;;;;;5.68;3.60;;;;;;;19.84;58.50;100239.16;4968208;28;118994;-70
2023/07/05 01:06:23;;;;;;;6.10;3.45;;;;;;;19.83;58.49;100229.41;4984333;28;124923;-71
2023/07/05 01:08:52;;;;;;;5.55;3.47;;;;;;;19.81;58.78;100252.88;4968280;28;124189;-70
2023/07/05 01:11:42;;;;;;;7.57;3.72;;;;;;;19.79;58.85;100252.19;4967361;28;119615;-71
2023/07/05 01:14:31;;;;;;;10.30;3.60;;;;;;;19.78;58.80;100263.94;4985751;28;118675;-70
2023/07/05 01:17:07;;;;;;;5.63;3.60;;;;;;;19.77;58.81;100246.09;4982998;28;124299;-70
2023/07/05 01:19:57;;;;;;;6.28;3.67;;;;;;;19.77;58.69;100243.41;4965272;28;123887;-71
2023/07/05 01:22:43;;;;;;;6.18;3.53;;;;;;;19.75;58.85;100240.88;4992480;28;119796;-70
2023/07/05 01:25:38;;;;;;;5.95;3.58;;;;;;;19.74;58.85;100219.50;4984588;28;120190;-70
2023/07/05 01:28:40;;;;;;;8.05;3.50;;;;;;;19.73;58.67;100217.84;4985884;28;124555;-70
2023/07/05 01:31:17;;;;;;;9.98;3.95;;;;;;;19.72;58.73;100232.22;4967016;28;125217;-69
2023/07/05 01:34:03;;;;;;;7.72;3.40;;;;;;;19.72;58.95;100226.84;4985761;28;118980;-70
2023/07/05 01:36:33;;;;;;;5.57;3.20;;;;;;;19.75;59.06;100231.97;4967485;28;119179;-70
2023/07/05 01:39:00;;;;;;;5.82;3.25;;;;;;;19.78;59.03;100231.69;4985690;28;124190;-71
2023/07/05 01:41:27;;;;;;;5.32;3.40;;;;;;;19.81;59.25;100223.31;4967757;28;123736;-71
2023/07/05 01:43:56;;;;;;;7.30;3.83;;;;;;;19.84;59.19;100225.72;4985745;28;119827;-71
2023/07/05 01:46:29;;;;;;;5.88;3.20;;;;;;;19.84;59.44;100214.97;4985419;28;119122;-71
2023/07/05 01:49:16;;;;;;;6.07;3.40;;;;;;;19.87;59.54;100224.59;4995803;28;123977;-71
2023/07/05 01:52:00;;;;;;;4.97;2.92;;;;;;;19.89;59.43;100212.72;4987855;28;123630;-71
2023/07/05 01:54:48;;;;;;;5.88;3.30;;;;;;;19.93;59.45;100216.81;4977309;28;119316;-71
2023/07/05 01:57:22;;;;;;;5.47;3.00;;;;;;;19.96;59.50;100219.19;4995992;28;119502;-71
2023/07/05 01:59:55;;;;;;;3.97;2.80;;;;;;;19.99;59.54;100202.78;4967751;28;123114;-71
2023/07/05 02:02:37;;;;;;;5.18;2.60;;;;;;;20.01;59.57;100205.31;4967272;28;123166;-70
2023/07/05 02:05:08;;;;;;;5.55;2.20;;;;;;;20.06;59.73;100210.25;4970904;28;119033;-71
2023/07/05 02:07:36;;;;;;;4.03;2.60;;;;;;;20.08;59.67;100200.19;4971475;28;117825;-71
2023/07/05 02:10:04;;;;;;;4.32;2.30;;;;;;;20.11;59.56;100194.53;4970889;28;124958;-71
2023/07/05 02:12:31;;;;;;;5.32;2.47;;;;;;;20.11;59.66;100194.53;4982159;28;123943;-71
2023/07/05 02:14:58;;;;;;;3.05;2.25;;;;;;;20.14;59.56;100215.75;4975251;28;119141;-71
2023/07/05 02:17:26;;;;;;;4.18;2.10;;;;;;;20.15;59.74;100222.81;4969303;28;118531;-70
2023/07/05 02:19:54;;;;;;;3.72;2.17;;;;;;;20.16;59.74;100224.53;4970144;28;122955;-71
2023/07/05 02:22:21;;;;;;;4.00;2.17;;;;;;;20.15;59.61;100222.81;4986751;28;124329;-70
2023/07/05 02:24:52;;;;;;;2.97;2.03;;;;;;;20.16;59.84;100229.91;4969870;28;118260;-69
2023/07/05 02:27:19;;;;;;;3.70;2.25;;;;;;;20.15;59.72;100241.63;4971028;28;119661;-70
2023/07/05 02:29:47;;;;;;;3.97;1.95;;;;;;;20.14;59.42;100242.66;4968576;28;123326;-71
2023/07/05 02:32:14;;;;;;;3.63;1.80;;;;;;;20.13;59.61;100240.94;4970734;28;123624;-71
2023/07/05 02:34:42;;;;;;;3.08;1.95;;;;;;;20.13;59.49;100252.53;4970477;28;118179;-69
2023/07/05 02:37:10;;;;;;;3.85;2.00;;;;;;;20.11;59.28;100264.44;4970168;28;118603;-70
2023/07/05 02:39:37;;;;;;;4.55;2.05;;;;;;;20.07;59.20;100263.88;4969735;28;123826;-70
2023/07/05 02:42:05;;;;;;;3.25;1.80;;;;;;;20.02;58.99;100272.38;4988304;28;124202;-70
2023/07/05 02:44:32;;;;;;;2.70;1.67;;;;;;;19.96;58.60;100289.06;4969493;28;119028;-70
2023/07/05 02:47:00;;;;;;;3.13;1.60;;;;;;;19.88;58.27;100278.19;4996000;28;119177;-70
2023/07/05 02:49:27;;;;;;;4.35;1.95;;;;;;;19.82;58.10;100292.22;4988411;28;124514;-70
2023/07/05 02:51:55;;;;;;;3.13;1.52;;;;;;;19.75;57.75;100307.19;4969912;28;123477;-71
2023/07/05 02:54:22;;;;;;;4.78;1.65;;;;;;;19.68;57.76;100300.66;4970459;28;119579;-71
2023/07/05 02:56:49;;;;;;;4.25;1.92;;;;;;;19.58;57.45;100306.88;4981130;28;118431;-70
2023/07/05 02:59:16;;;;;;;3.10;1.77;;;;;;;19.50;57.08;100319.34;4990575;28;124461;-70
2023/07/05 03:01:44;;;;;;;3.67;1.75;;;;;;;19.38;56.72;100322.16;4988202;28;123709;-70
2023/07/05 03:04:14;;;;;;;2.83;1.77;;;;;;;19.31;56.71;100325.50;4993057;28;120785;-70
2023/07/05 03:06:41;;;;;;;3.17;1.92;;;;;;;19.20;56.55;100330.00;4995857;28;119826;-70
2023/07/05 03:09:08;;;;;;;4.22;1.90;;;;;;;19.10;56.33;100318.41;4961558;28;123120;-71
2023/07/05 03:11:36;;;;;;;5.05;2.30;;;;;;;18.99;56.38;100318.50;4987708;28;124626;-70
2023/07/05 03:14:03;;;;;;;3.25;2.10;;;;;;;18.90;56.06;100311.28;4987430;28;118955;-70
2023/07/05 03:16:30;;;;;;;4.95;2.50;;;;;;;18.78;56.05;100324.75;4987017;28;119022;-70
2023/07/05 03:18:57;;;;;;;3.90;2.08;;;;;;;18.70;56.19;100321.03;4989533;28;123637;-70
2023/07/05 03:21:25;;;;;;;3.60;1.95;;;;;;;18.62;56.04;100319.03;4992454;28;124477;-70
2023/07/05 03:23:52;;;;;;;3.55;2.20;;;;;;;18.54;56.02;100321.53;4953062;28;118182;-70
2023/07/05 03:26:19;;;;;;;4.68;2.28;;;;;;;18.47;56.07;100327.41;4968735;28;119312;-70
2023/07/05 03:28:46;;;;;;;3.30;2.10;;;;;;;18.41;56.32;100327.97;4986725;28;123932;-70
2023/07/05 03:31:16;;;;;;;4.22;2.40;;;;;;;18.37;56.26;100329.22;4986004;28;123825;-70
2023/07/05 03:33:44;;;;;;;4.13;2.28;;;;;;;18.34;56.19;100321.41;4968392;28;119449;-70
2023/07/05 03:36:14;;;;;;;4.80;2.47;;;;;;;18.29;56.20;100337.06;4986572;28;119860;-71
2023/07/05 03:38:42;;;;;;;3.83;2.40;;;;;;;18.24;56.26;100347.34;4984413;28;124369;-71
2023/07/05 03:41:15;;;;;;;3.60;2.15;;;;;;;18.18;56.29;100353.22;4987181;28;123991;-70
2023/07/05 03:43:43;;;;;;;4.57;2.40;;;;;;;18.16;56.42;100349.78;4974443;28;119085;-70
2023/07/05 03:46:12;;;;;;;3.45;2.45;;;;;;;18.12;56.24;100340.31;4987807;28;118768;-70
2023/07/05 03:48:42;;;;;;;4.78;2.50;;;;;;;18.08;56.21;100347.78;4969528;28;124235;-70
2023/07/05 03:51:16;;;;;;;4.60;2.45;;;;;;;18.06;56.20;100342.56;4986700;28;125038;-70
2023/07/05 03:53:52;;;;;;;6.32;2.60;;;;;;;18.05;56.29;100348.88;4969280;28;120828;-70
2023/07/05 03:56:19;;;;;;;;;;;;;;;18.03;56.04;100350.00;4973785;28;119926;-70
2023/07/05 03:58:47;;;;;;;4.20;2.50;;;;;;;18.03;56.04;100350.00;4993403;28;124287;-69
2023/07/05 04:01:23;;;;;;;11.75;2.80;;;;;;;17.99;56.15;100354.78;4987452;28;124134;-70
2023/07/05 04:03:54;;;;;;;5.07;2.97;;;;;;;17.99;56.29;100354.78;4984566;28;119329;-70
2023/07/05 04:06:23;;;;;;;5.32;2.80;;;;;;;17.98;56.06;100347.69;4966928;28;118406;-70
2023/07/05 04:08:50;;;;;;;5.00;2.75;;;;;;;17.95;56.12;100347.97;4968459;28;124736;-70
2023/07/05 04:11:18;;;;;;;4.85;2.85;;;;;;;17.94;56.13;100351.63;4969814;28;124253;-70
2023/07/05 04:13:46;;;;;;;4.38;2.85;;;;;;;17.93;56.16;100349.91;4969270;28;118490;-70
2023/07/05 04:16:19;;;;;;;5.07;2.78;;;;;;;17.93;56.17;100333.84;4988000;28;119212;-70
2023/07/05 04:18:50;;;;;;;4.68;2.80;;;;;;;17.93;56.21;100328.47;4984285;28;124313;-70
2023/07/05 04:21:17;;;;;;;5.18;2.80;;;;;;;17.95;56.02;100342.63;4984997;28;123984;-70
2023/07/05 04:23:45;;;;;;;5.20;2.58;;;;;;;17.96;56.17;100344.31;4968769;28;118164;-70
2023/07/05 04:26:18;;;;;;;5.72;3.17;;;;;;;17.98;56.13;100346.84;4980677;28;118564;-70
2023/07/05 04:28:46;;;;;;;4.72;2.65;;;;;;;17.98;55.98;100334.31;4976281;28;123788;-70
2023/07/05 04:31:20;;;;;;;4.88;2.90;;;;;;;17.99;56.12;100338.69;4967936;28;123251;-69
2023/07/05 04:33:47;;;;;;;5.85;2.97;;;;;;;18.02;56.00;100348.28;4969431;28;119630;-70
2023/07/05 04:36:14;;;;;;;5.03;3.00;;;;;;;18.03;55.85;100350.84;4967739;28;118323;-70
2023/07/05 04:38:54;;;;;;;6.10;3.10;;;;;;;18.06;56.07;100353.28;4964406;28;124122;-70
2023/07/05 04:41:22;;;;;;;6.18;3.13;;;;;;;18.08;55.70;100345.97;4986071;28;124643;-73
2023/07/05 04:43:51;;;;;;;7.63;3.40;;;;;;;18.09;55.88;100355.69;4985866;28;120511;-70
2023/07/05 04:46:19;;;;;;;6.68;2.90;;;;;;;18.12;55.86;100359.09;4986168;28;120158;-70
2023/07/05 04:48:47;;;;;;;4.50;2.92;;;;;;;18.14;55.79;100351.75;4986553;28;124676;-70
2023/07/05 04:51:14;;;;;;;5.07;3.10;;;;;;;18.15;55.79;100353.47;4986227;28;125027;-70
2023/07/05 04:53:43;;;;;;;5.97;2.72;;;;;;;18.18;55.91;100347.88;4987076;28;119795;-70
2023/07/05 04:56:12;;;;;;;5.75;2.90;;;;;;;18.19;55.87;100349.53;4973636;28;117936;-68
2023/07/05 04:58:40;;;;;;;6.03;3.17;;;;;;;18.21;55.50;100336.84;4975455;28;123528;-69
2023/07/05 05:01:08;;;;;;;5.95;2.90;;;;;;;18.23;55.54;100359.03;4987182;28;123834;-69
2023/07/05 05:03:35;;;;;;;4.95;2.80;;;;;;;18.23;55.57;100334.91;4968303;28;119725;-69
2023/07/05 05:06:02;;;;;;;6.45;3.22;;;;;;;18.25;55.42;100338.28;4968073;28;116931;-69
2023/07/05 05:08:30;;;;;;;7.07;2.70;;;;;;;18.26;55.43;100326.59;4982467;28;124652;-69
2023/07/05 05:11:03;;;;;;;5.03;3.00;;;;;;;18.26;55.23;100319.41;4969084;28;124242;-69
2023/07/05 05:13:32;;;;;;;8.73;3.38;;;;;;;18.29;55.35;100327.19;4985504;28;119204;-69
2023/07/05 05:16:00;;;;;;;4.93;2.95;;;;;;;18.34;55.16;100324.09;4967336;28;118337;-69
2023/07/05 05:18:30;;;;;;;6.05;3.10;;;;;;;18.37;54.94;100323.84;4989017;28;124950;-69
2023/07/05 05:20:58;;;;;;;4.75;2.80;;;;;;;18.40;55.13;100337.00;4985933;28;124664;-69
2023/07/05 05:23:26;;;;;;;5.03;2.63;;;;;;;18.42;55.12;100335.03;4984515;28;119237;-70
2023/07/05 05:25:53;;;;;;;5.28;2.85;;;;;;;18.45;54.97;100329.38;4982128;28;118450;-70
2023/07/05 05:28:20;;;;;;;6.78;3.20;;;;;;;18.46;54.83;100336.47;4969715;28;122792;-70
2023/07/05 05:30:49;;;;;;;7.68;2.72;;;;;;;18.47;54.65;100332.78;4985727;28;124418;-70
2023/07/05 05:33:17;;;;;;;6.45;2.80;;;;;;;18.49;54.52;100338.84;4970473;28;119474;-70
2023/07/05 05:35:49;;;;;;;8.95;2.90;;;;;;;18.52;54.47;100351.19;4983087;28;119746;-70
2023/07/05 05:38:17;;;;;;;7.38;3.05;;;;;;;18.54;54.32;100340.31;4980770;28;124316;-70
2023/07/05 05:40:44;;;;;;;5.70;2.67;;;;;;;18.54;54.14;100349.22;4993836;28;124799;-70
2023/07/05 05:43:12;;;;;;;5.60;3.10;;;;;;;18.54;54.09;100354.56;4997470;28;119530;-68
2023/07/05 05:45:41;;;;;;;6.85;2.72;;;;;;;18.54;54.04;100343.00;4997530;28;119698;-69
2023/07/05 05:48:08;;;;;;;5.25;2.92;;;;;;;18.56;53.97;100341.03;4986678;28;124640;-69
2023/07/05 05:50:35;;;;;;;4.93;2.53;;;;;;;18.57;54.06;100342.72;4989365;28;124239;-69
2023/07/05 05:53:02;;;;;;;5.35;2.60;;;;;;;18.57;53.79;100348.06;4988563;28;119963;-69
2023/07/05 05:55:30;;;;;;;5.15;2.53;;;;;;;18.58;53.71;100344.44;4970102;28;119253;-69
2023/07/05 05:57:57;;;;;;;6.18;2.67;;;;;;;18.57;53.33;100348.06;4992598;28;123920;-70
2023/07/05 06:00:24;;;;;;;4.80;2.33;;;;;;;18.56;53.35;100357.13;4972051;28;126627;-69
2023/07/05 06:02:52;;;;;;;6.55;2.75;;;;;;;18.53;53.35;100344.81;4973375;28;119446;-69
2023/07/05 06:08:55;;;;;;;4.75;2.10;;;;;;;18.49;53.48;100352.28;4981007;28;123418;-71
2023/07/05 06:11:22;;;;;;;6.80;2.45;;;;;;;18.48;53.11;100361.31;4996371;28;123249;-70
2023/07/05 06:13:49;;;;;;;5.38;2.60;;;;;;;18.45;53.20;100350.84;4990666;28;118942;-70
2023/07/05 06:16:17;;;;;;;6.75;2.47;;;;;;;18.46;53.16;100360.59;4991544;28;118299;-70
2023/07/05 06:18:44;;;;;;;6.15;2.78;;;;;;;18.45;53.05;100361.56;4989754;28;124629;-70
2023/07/05 06:21:12;;;;;;;4.57;2.30;;;;;;;18.44;53.10;100367.94;4979662;28;123786;-69
2023/07/05 06:23:39;;;;;;;5.97;2.40;;;;;;;18.43;53.20;100363.53;4987131;28;122287;-69
2023/07/05 06:26:08;;;;;;;5.55;2.38;;;;;;;18.44;52.93;100365.25;4970555;28;119539;-69
2023/07/05 06:28:36;;;;;;;3.55;2.13;;;;;;;18.45;53.12;100372.28;4970405;28;124424;-69
2023/07/05 06:31:07;;;;;;;5.47;2.10;;;;;;;18.45;53.03;100387.53;4970205;28;123057;-70
2023/07/05 06:33:34;;;;;;;6.10;2.58;;;;;;;18.45;52.93;100376.81;4987831;28;119545;-69
2023/07/05 06:36:02;;;;;;;3.17;2.17;;;;;;;18.44;52.79;100386.69;4987690;28;118890;-69
2023/07/05 06:38:29;;;;;;;6.40;2.20;;;;;;;18.44;52.87;100375.97;4987887;28;124182;-69
2023/07/05 06:40:57;;;;;;;5.18;2.13;;;;;;;18.46;52.87;100397.31;4987186;28;124262;-69
2023/07/05 06:43:25;;;;;;;4.28;2.20;;;;;;;18.45;52.97;100404.47;4971745;28;119861;-69
2023/07/05 06:45:54;;;;;;;4.05;2.15;;;;;;;18.48;52.97;100393.50;4988291;28;118870;-69
2023/07/05 06:48:22;;;;;;;5.00;2.30;;;;;;;18.52;52.97;100404.81;4987625;28;123406;-70
2023/07/05 06:50:54;;;;;;;6.88;2.15;;;;;;;18.58;52.79;100392.72;4987220;28;123604;-69
2023/07/05 06:53:23;;;;;;;4.72;2.17;;;;;;;18.65;52.63;100404.63;4974601;28;119282;-69
2023/07/05 06:56:10;;;;;;;4.18;2.25;;;;;;;18.72;52.82;100392.34;4986759;28;119142;-70
2023/07/05 06:58:38;;;;;;;4.10;2.33;;;;;;;18.80;52.79;100403.31;4987704;28;123894;-69
2023/07/05 07:01:05;;;;;;;4.15;2.10;;;;;;;18.88;52.62;100415.22;4980402;28;123122;-69
2023/07/05 07:03:33;;;;;;;5.72;1.90;;;;;;;18.95;52.46;100405.63;4991899;28;118925;-69
2023/07/05 07:06:00;;;;;;;4.13;1.90;;;;;;;19.00;52.07;100408.75;4997761;28;118997;-70
2023/07/05 07:08:30;;;;;;;4.45;1.80;;;;;;;19.09;52.04;100407.97;4987248;28;124681;-70
2023/07/05 07:11:05;;;;;;;3.05;1.98;;;;;;;19.21;52.00;100435.56;4987756;28;126214;-69
2023/07/05 07:13:33;;;;;;;5.45;2.20;;;;;;;19.34;51.86;100427.28;4969752;28;119759;-69
2023/07/05 07:16:08;;;;;;;3.53;1.90;;;;;;;19.43;51.78;100421.09;4974960;28;118863;-69
2023/07/05 07:18:37;;;;;;;4.43;2.05;;;;;;;19.50;51.47;100427.63;4968962;28;124795;-69
2023/07/05 07:21:06;;;;;;;4.28;2.10;;;;;;;19.55;51.25;100428.06;4987005;28;124168;-69
2023/07/05 07:23:33;;;;;;;4.45;2.00;;;;;;;19.65;51.23;100438.81;4988127;28;118523;-69
2023/07/05 07:26:11;;;;;;;5.78;2.03;;;;;;;19.73;50.63;100419.34;4987506;28;119579;-70
2023/07/05 07:28:39;;;;;;;3.40;1.77;;;;;;;19.76;50.60;100444.13;4986277;28;122963;-69
2023/07/05 07:31:15;;;;;;;3.45;1.80;;;;;;;19.78;50.43;100452.03;4986555;28;123742;-70
2023/07/05 07:33:45;;;;;;;5.70;2.10;;;;;;;19.76;50.32;100448.63;4971290;28;119592;-71
2023/07/05 07:36:15;;;;;;;5.78;2.10;;;;;;;19.72;50.09;100479.41;4987421;28;119177;-71
2023/07/05 07:38:43;;;;;;;5.10;1.60;;;;;;;19.67;49.96;100454.81;4965642;28;125269;-71
2023/07/05 07:41:16;;;;;;;4.90;1.80;;;;;;;19.68;50.02;100468.09;4984192;28;123876;-70
2023/07/05 07:43:44;;;;;;;8.25;1.92;;;;;;;19.69;50.07;100472.47;4986276;28;119364;-69
2023/07/05 07:46:13;;;;;;;5.75;1.73;;;;;;;19.78;50.20;100473.53;4970088;28;118732;-70
2023/07/05 07:48:45;;;;;;;4.85;1.70;;;;;;;19.86;50.13;100492.50;4982717;28;126212;-70
2023/07/05 07:51:12;;;;;;;3.55;1.80;;;;;;;19.93;50.14;100492.78;4982180;28;124747;-70
2023/07/05 07:54:00;;;;;;;4.43;1.88;;;;;;;19.94;49.79;100516.84;4952015;28;118603;-71
2023/07/05 07:56:27;;;;;;;3.85;1.63;;;;;;;19.90;49.87;100520.78;4980556;28;117983;-70
2023/07/05 07:58:56;;;;;;;3.85;1.88;;;;;;;19.82;49.86;100518.81;4975916;28;124661;-71
2023/07/05 08:01:27;;;;;;;5.03;1.60;;;;;;;19.72;49.85;100522.41;4985264;28;124144;-69
2023/07/05 08:03:56;;;;;;;2.92;1.80;;;;;;;19.63;50.03;100530.31;4983320;28;120302;-70
2023/07/05 08:06:30;;;;;;;3.53;1.70;;;;;;;19.55;50.21;100527.44;4986382;28;118903;-70
2023/07/05 08:08:57;;;;;;;4.10;2.13;;;;;;;19.50;50.46;100524.31;4983187;28;122962;-70
2023/07/05 08:11:25;;;;;;;4.28;1.98;;;;;;;19.46;50.51;100517.50;4968020;28;122782;-69
2023/07/05 08:13:52;;;;;;;3.85;1.90;;;;;;;19.42;50.70;100532.16;4987101;28;119234;-69
2023/07/05 08:16:20;;;;;;;4.05;1.90;;;;;;;19.39;50.60;100532.47;4986988;28;118781;-70
2023/07/05 08:18:47;;;;;;;5.15;1.85;;;;;;;19.39;50.66;100537.84;4988599;28;124073;-69
2023/07/05 08:21:15;;;;;;;7.57;2.40;;;;;;;19.39;51.04;100533.31;4991647;28;124127;-69
2023/07/05 08:23:43;;;;;;;3.67;1.75;;;;;;;19.47;51.36;100546.06;4980809;28;119160;-69
2023/07/05 08:26:12;;;;;;;4.43;2.13;;;;;;;19.52;51.19;100546.50;4977372;28;118805;-70
2023/07/05 08:28:39;;;;;;;4.13;2.00;;;;;;;19.55;51.11;100559.69;4986424;28;124372;-70
2023/07/05 08:31:07;;;;;;;5.32;2.33;;;;;;;19.53;50.96;100550.03;4974121;28;124579;-70
2023/07/05 08:33:36;;;;;;;4.65;2.10;;;;;;;19.48;50.87;100563.88;4986361;28;118599;-69
2023/07/05 08:36:28;;;;;;;5.10;2.20;;;;;;;19.41;51.03;100558.19;4975278;28;119158;-69
2023/07/05 08:38:56;;;;;;;4.03;2.25;;;;;;;19.37;50.86;100562.13;4974285;28;122373;-69
2023/07/05 08:41:29;;;;;;;3.95;1.98;;;;;;;19.36;50.92;100570.31;4981026;28;123962;-69
2023/07/05 08:44:07;;;;;;;7.00;2.28;;;;;;;19.36;51.13;100562.25;4966091;28;119422;-70
2023/07/05 08:46:38;;;;;;;6.07;2.58;;;;;;;19.42;51.26;100583.19;4984173;28;119274;-70
2023/07/05 08:49:21;;;;;;;5.72;2.40;;;;;;;19.46;51.13;100571.25;4968480;28;123637;-69
2023/07/05 08:51:49;;;;;;;8.27;2.30;;;;;;;19.49;51.01;100560.19;4954025;28;124243;-70
2023/07/05 08:54:16;;;;;;;4.93;2.72;;;;;;;19.56;51.01;100571.28;4985882;28;121126;-69
2023/07/05 08:56:50;;;;;;;5.05;2.78;;;;;;;19.68;51.25;100585.47;4978905;28;118757;-70
2023/07/05 08:59:32;;;;;;;6.78;2.65;;;;;;;19.78;51.19;100570.28;4970035;28;122961;-70
2023/07/05 09:02:00;;;;;;;5.68;2.80;;;;;;;19.87;50.75;100590.09;4983337;28;123755;-69
2023/07/05 09:04:32;;;;;;;6.25;2.80;;;;;;;19.90;50.79;100601.44;4961241;28;119652;-70
2023/07/05 09:07:33;;;;;;;5.00;2.83;;;;;;;19.92;50.39;100601.31;4980129;28;118241;-69
2023/07/05 09:10:12;;;;;;;9.13;2.90;;;;;;;19.93;50.63;100600.31;4977969;28;124353;-70
2023/07/05 09:13:04;;;;;;;3.92;2.72;;;;;;;19.97;50.71;100607.97;4986099;28;123954;-70
2023/07/05 09:15:38;;;;;;;5.63;2.95;;;;;;;20.06;50.60;100608.13;4985182;28;119337;-71
2023/07/05 09:18:37;;;;;;;5.10;2.55;;;;;;;20.15;50.36;100610.00;4988687;28;119470;-70
2023/07/05 09:21:23;;;;;;;9.63;2.63;;;;;;;20.26;50.38;100626.03;4947950;28;123427;-70
2023/07/05 09:24:00;;;;;;;6.90;2.55;;;;;;;20.34;50.24;100620.84;4987032;28;122916;-69
2023/07/05 09:26:52;;;;;;;5.28;2.80;;;;;;;20.42;50.20;100607.53;4979062;28;118489;-70
2023/07/05 09:29:39;;;;;;;6.25;2.88;;;;;;;20.53;50.02;100635.28;4985315;28;119502;-71
2023/07/05 09:32:12;;;;;;;4.90;2.42;;;;;;;20.67;49.93;100624.16;4983576;28;124118;-70
2023/07/05 09:34:50;;;;;;;6.00;2.30;;;;;;;20.81;50.16;100633.66;4986342;28;124716;-70
2023/07/05 09:37:20;;;;;;;5.70;2.58;;;;;;;20.97;50.09;100660.03;4970567;28;119064;-70
2023/07/05 09:40:00;;;;;;;6.18;2.88;;;;;;;21.08;49.99;100657.22;4990695;28;118625;-70
2023/07/05 09:43:03;;;;;;;6.40;2.35;;;;;;;21.14;49.42;100656.63;4980723;28;124570;-70
2023/07/05 09:45:31;;;;;;;8.88;2.83;;;;;;;21.16;48.90;100643.88;4965022;28;124121;-72
2023/07/05 09:48:04;;;;;;;5.72;2.03;;;;;;;21.14;48.39;100667.41;4988130;28;120378;-70
2023/07/05 09:50:32;;;;;;;5.28;2.20;;;;;;;21.12;48.41;100673.94;4985128;28;119819;-70
2023/07/05 09:53:39;;;;;;;7.35;2.22;;;;;;;21.05;48.23;100689.78;4987786;28;125991;-70
2023/07/05 09:56:09;;;;;;;6.35;2.22;;;;;;;21.01;48.09;100704.53;4987319;28;123850;-70
2023/07/05 09:58:37;;;;;;;7.25;2.20;;;;;;;20.99;48.01;100695.75;4983533;28;119459;-70
2023/07/05 10:01:13;;;;;;;4.07;2.20;;;;;;;20.99;47.96;100690.38;4976774;28;118407;-69
2023/07/05 10:03:53;;;;;;;7.63;2.15;;;;;;;21.04;47.88;100703.41;4987602;28;123840;-70
2023/07/05 10:06:25;;;;;;;5.63;2.15;;;;;;;21.07;48.06;100722.81;4968801;28;124085;-70
2023/07/05 10:08:54;;;;;;;7.10;2.00;;;;;;;21.10;48.24;100711.78;4991350;28;119593;-70
2023/07/05 10:11:27;;;;;;;7.18;1.95;;;;;;;21.12;48.03;100715.19;4989397;28;118948;-70
2023/07/05 10:14:06;;;;;;;5.18;1.88;;;;;;;21.14;48.14;100725.81;4968497;28;124011;-70
2023/07/05 10:16:48;;;;;;;5.10;1.58;;;;;;;21.22;47.69;100717.03;4984992;28;123760;-71
2023/07/05 10:19:24;;;;;;;5.53;1.57;;;;;;;21.33;47.78;100741.13;4983960;28;119157;-71
2023/07/05 10:21:56;;;;;;;8.52;1.75;;;;;;;21.44;47.00;100738.31;4987131;28;119641;-70
2023/07/05 10:24:24;;;;;;;9.20;1.77;;;;;;;21.55;46.91;100735.47;4983962;28;124106;-70
2023/07/05 10:27:02;;;;;;;8.15;1.48;;;;;;;21.64;46.48;100741.00;4982263;28;123983;-71
2023/07/05 10:29:30;;;;;;;2.13;1.38;;;;;;;21.78;46.74;100752.19;4984854;28;119828;-70
2023/07/05 10:32:00;;;;;;;4.47;1.60;;;;;;;21.96;46.47;100744.22;4977807;28;119557;-71
2023/07/05 10:34:28;;;;;;;3.42;1.23;;;;;;;22.12;46.15;100764.34;4967955;28;122636;-70
2023/07/05 10:36:55;;;;;;;7.57;1.42;;;;;;;22.23;45.64;100766.84;4988840;28;124451;-70
2023/07/05 10:39:26;;;;;;;4.88;1.10;;;;;;;22.33;45.21;100767.69;4968571;28;120648;-71
2023/07/05 10:41:58;;;;;;;4.28;1.42;;;;;;;22.47;44.67;100779.00;4968962;28;121450;-70
2023/07/05 10:44:39;;;;;;;10.52;1.60;;;;;;;22.63;44.59;100773.81;4993253;28;124798;-69
2023/07/05 10:47:11;;;;;;;4.13;1.30;;;;;;;22.78;44.40;100778.75;4959826;28;122284;-70
2023/07/05 10:49:40;;;;;;;5.72;1.33;;;;;;;22.91;44.07;100781.94;4969736;28;119132;-70
2023/07/05 10:52:12;;;;;;;4.78;1.23;;;;;;;23.07;43.49;100786.69;4954159;28;119402;-70
2023/07/05 10:54:45;;;;;;;5.00;1.40;;;;;;;23.16;42.97;100790.34;4953903;28;123038;-71
2023/07/05 10:57:25;;;;;;;5.28;1.50;;;;;;;23.25;42.76;100811.03;4992230;28;123008;-72
2023/07/05 11:00:01;;;;;;;5.45;1.42;;;;;;;23.31;42.43;100805.03;4992489;28;118739;-70
2023/07/05 11:02:31;;;;;;;5.22;1.38;;;;;;;23.32;42.29;100829.19;4983999;28;118354;-71
2023/07/05 11:04:59;;;;;;;6.40;1.40;;;;;;;23.34;42.00;100804.72;4989786;28;124110;-71
2023/07/05 11:07:29;;;;;;;8.05;1.48;;;;;;;23.33;41.82;100797.59;4991909;28;123121;-70
2023/07/05 11:09:57;;;;;;;7.47;1.45;;;;;;;23.44;42.06;100810.91;4974835;28;118767;-70
2023/07/05 11:12:28;;;;;;;3.20;1.20;;;;;;;23.54;41.50;100820.78;4969958;28;119347;-70
2023/07/05 11:14:57;;;;;;;6.03;1.23;;;;;;;23.57;41.31;100809.69;4971027;28;123385;-70
2023/07/05 11:17:31;;;;;;;3.47;1.10;;;;;;;23.59;41.03;100813.06;4977753;28;123729;-70
2023/07/05 11:19:59;;;;;;;4.28;1.38;;;;;;;23.51;40.49;100828.22;4987914;28;119337;-70
2023/07/05 11:22:40;;;;;;;5.95;1.30;;;;;;;23.39;40.43;100840.22;4988374;28;119012;-71
2023/07/05 11:25:15;;;;;;;5.97;1.40;;;;;;;23.26;40.48;100834.34;4969802;28;124210;-71
2023/07/05 11:27:50;;;;;;;3.80;1.30;;;;;;;23.17;40.73;100835.25;4997917;28;123859;-70
2023/07/05 11:30:43;;;;;;;10.57;1.50;;;;;;;23.13;40.56;100848.22;4955590;28;120023;-70
2023/07/05 11:33:10;;;;;;;4.25;1.20;;;;;;;23.02;40.55;100849.25;4966317;28;118901;-70
2023/07/05 11:35:48;;;;;;;5.25;1.48;;;;;;;22.89;40.35;100859.56;4949827;28;123814;-70
2023/07/05 11:38:54;;;;;;;3.95;1.00;;;;;;;22.71;40.53;100863.03;4964359;28;124377;-71
2023/07/05 11:41:27;;;;;;;;;;;;;;;22.56;41.64;100864.50;4968554;28;118397;-70